Weather at Stafsberg Airport

Public forecast

Using degrees Celsius for public forecast. Weather courtesy of forecast.io.

Closest aviation weather report (METAR) to Stafsberg Airport

Closest report is Oslo Gardermoen Airport, 37.5 nm (69.4 km) S. Retrieved 2021/04/12 20:50 UTC (20 minutes ago):

ENGM 122050Z 35011KT 5000 2200NE -SN BR FEW006 BKN018 00/M01 Q1013 TEMPO 2500 -SN BR SCT006 BKN012

Closest aviation forecast (TAF) to Stafsberg Airport

Closest forecast is Oslo Gardermoen Airport, 37.5 nm (69.4 km) S. Retrieved 2021/04/12 18:57 UTC (2 hours ago):

TAF ENGM 121700Z 1218/1318 36008KT 9000 -SNRA BKN020 TEMPO 1218/1303 1400 -SHSN BR BKN008 FEW020CB